createdAt,value
2018-02-03T00:02:09.710Z,95.30
2018-02-03T00:04:37.352Z,95.20
2018-02-03T00:07:05.858Z,95.20
2018-02-03T00:09:33.506Z,95.10
2018-02-03T00:12:01.837Z,95.20
2018-02-03T00:14:29.613Z,95.20
2018-02-03T00:16:57.180Z,95.10
2018-02-03T00:19:24.754Z,95.20
2018-02-03T00:21:53.134Z,95.10
2018-02-03T00:24:22.148Z,95.10
2018-02-03T00:26:49.823Z,95.10
2018-02-03T00:29:17.411Z,95.20
2018-02-03T00:31:44.969Z,95.20
2018-02-03T00:34:12.684Z,95.00
2018-02-03T00:36:41.086Z,94.70
2018-02-03T00:39:08.683Z,94.70
2018-02-03T00:41:36.308Z,94.60
2018-02-03T00:44:03.925Z,94.60
2018-02-03T00:46:31.636Z,94.30
2018-02-03T00:48:59.154Z,94.30
2018-02-03T00:51:27.471Z,94.30
2018-02-03T00:53:55.075Z,94.20
2018-02-03T00:56:22.622Z,94.10
2018-02-03T00:58:50.278Z,94.30
2018-02-03T01:01:18.053Z,94.20
2018-02-03T01:03:45.628Z,94.10
2018-02-03T01:06:13.390Z,94.00
2018-02-03T01:08:40.983Z,93.90
2018-02-03T01:11:08.526Z,93.90
2018-02-03T01:13:36.812Z,93.60
2018-02-03T01:16:05.111Z,93.60
2018-02-03T01:18:34.264Z,93.60
2018-02-03T01:21:02.584Z,93.80
2018-02-03T01:23:30.101Z,93.70
2018-02-03T01:25:58.377Z,93.60
2018-02-03T01:28:26.678Z,93.70
2018-02-03T01:30:54.186Z,93.70
2018-02-03T01:33:21.727Z,93.70
2018-02-03T01:35:49.364Z,93.70
2018-02-03T01:38:16.909Z,93.60
2018-02-03T01:40:45.183Z,93.80
2018-02-03T01:43:13.617Z,93.40
2018-02-03T01:45:41.118Z,93.40
2018-02-03T01:48:09.424Z,93.50
2018-02-03T01:50:36.948Z,93.50
2018-02-03T01:53:05.257Z,93.60
2018-02-03T01:55:32.837Z,93.60
2018-02-03T01:58:01.199Z,93.60
2018-02-03T02:00:28.760Z,93.60
2018-02-03T02:02:56.287Z,93.60
2018-02-03T02:05:24.567Z,93.50
2018-02-03T02:07:52.865Z,95.70
2018-02-03T02:10:20.379Z,95.70
2018-02-03T02:12:47.991Z,93.60
2018-02-03T02:15:15.498Z,93.50
2018-02-03T02:17:43.052Z,93.50
2018-02-03T02:20:10.547Z,93.30
2018-02-03T02:22:38.112Z,93.40
2018-02-03T02:25:05.627Z,93.50
2018-02-03T02:27:33.342Z,93.30
2018-02-03T02:30:00.838Z,93.50
2018-02-03T02:32:28.375Z,93.30
2018-02-03T02:34:55.885Z,93.50
2018-02-03T02:37:24.315Z,93.30
2018-02-03T02:39:51.828Z,93.30
2018-02-03T02:42:20.102Z,93.40
2018-02-03T02:44:48.498Z,93.20
2018-02-03T02:47:16.250Z,93.20
2018-02-03T02:49:44.565Z,93.10
2018-02-03T02:52:12.078Z,93.10
2018-02-03T02:54:40.377Z,93.10
2018-02-03T02:57:07.888Z,93.10
2018-02-03T02:59:35.524Z,93.20
2018-02-03T03:02:03.043Z,93.20
2018-02-03T03:04:30.603Z,93.00
2018-02-03T03:06:58.882Z,93.10
2018-02-03T03:09:26.410Z,93.10
2018-02-03T03:11:54.018Z,93.10
2018-02-03T03:14:21.656Z,93.30
2018-02-03T03:16:50.001Z,93.20
2018-02-03T03:19:17.547Z,93.20
2018-02-03T03:21:45.067Z,93.30
2018-02-03T03:24:12.614Z,93.30
2018-02-03T03:26:40.907Z,93.40
2018-02-03T03:29:08.439Z,93.30
2018-02-03T03:31:36.725Z,93.40
2018-02-03T03:34:05.049Z,93.40
2018-02-03T03:36:32.570Z,93.40
2018-02-03T03:39:00.102Z,93.10
2018-02-03T03:41:28.383Z,93.40
2018-02-03T03:43:56.695Z,93.20
2018-02-03T03:46:24.200Z,93.20
2018-02-03T03:48:51.736Z,93.20
2018-02-03T03:51:19.260Z,93.10
2018-02-03T03:53:46.812Z,93.10
2018-02-03T03:56:15.195Z,93.10
2018-02-03T03:58:43.503Z,93.20
2018-02-03T04:01:11.071Z,93.10
2018-02-03T04:03:38.610Z,93.10
2018-02-03T04:06:06.153Z,93.20
2018-02-03T04:08:33.725Z,93.30
2018-02-03T04:11:01.233Z,93.30
2018-02-03T04:13:28.774Z,93.50
2018-02-03T04:15:56.298Z,93.60
2018-02-03T04:18:23.856Z,93.70
2018-02-03T04:20:51.360Z,93.80
2018-02-03T04:23:18.973Z,93.70
2018-02-03T04:25:46.503Z,93.80
2018-02-03T04:28:14.831Z,93.70
2018-02-03T04:30:42.320Z,93.70
2018-02-03T04:33:09.892Z,93.70
2018-02-03T04:35:37.433Z,93.60
2018-02-03T04:38:05.015Z,93.30
2018-02-03T04:40:33.292Z,93.50
2018-02-03T04:43:01.606Z,93.40
2018-02-03T04:45:29.138Z,93.40
2018-02-03T04:47:57.545Z,93.40
2018-02-03T04:50:25.083Z,93.40
2018-02-03T04:52:52.781Z,93.30
2018-02-03T04:55:20.312Z,93.20
2018-02-03T04:57:47.844Z,93.30
2018-02-03T05:00:16.153Z,93.20
2018-02-03T05:02:44.539Z,93.30
2018-02-03T05:05:12.149Z,93.20
2018-02-03T05:07:39.684Z,93.30
2018-02-03T05:10:07.212Z,93.20
2018-02-03T05:12:34.767Z,93.30
2018-02-03T05:15:02.382Z,93.30
2018-02-03T05:17:29.963Z,93.40
2018-02-03T05:19:58.274Z,93.50
2018-02-03T05:22:25.806Z,93.50
2018-02-03T05:24:54.196Z,93.60
2018-02-03T05:27:21.784Z,93.60
2018-02-03T05:29:49.303Z,93.50
2018-02-03T05:32:18.859Z,93.50
2018-02-03T05:34:46.371Z,93.40
2018-02-03T05:37:14.811Z,93.50
2018-02-03T05:39:42.296Z,93.50
2018-02-03T05:42:10.643Z,93.40
2018-02-03T05:44:40.046Z,93.40
2018-02-03T05:47:07.611Z,93.50
2018-02-03T05:49:35.156Z,93.70
2018-02-03T05:52:02.796Z,93.50
2018-02-03T05:54:31.652Z,93.50
2018-02-03T05:57:00.046Z,93.40
2018-02-03T05:59:27.560Z,93.40
2018-02-03T06:01:55.103Z,93.50
2018-02-03T06:04:22.647Z,93.70
2018-02-03T06:06:51.091Z,93.90
2018-02-03T06:09:19.388Z,94.00
2018-02-03T06:11:46.964Z,93.90
2018-02-03T06:14:14.484Z,93.90
2018-02-03T06:16:42.807Z,94.00
2018-02-03T06:19:10.361Z,94.00
2018-02-03T06:21:37.900Z,93.90
2018-02-03T06:24:05.400Z,93.90
2018-02-03T06:26:32.946Z,94.00
2018-02-03T06:29:00.507Z,94.00
2018-02-03T06:31:28.130Z,94.10
2018-02-03T06:33:55.644Z,93.90
2018-02-03T06:36:23.176Z,94.00
2018-02-03T06:38:50.725Z,93.80
2018-02-03T06:41:18.295Z,93.80
2018-02-03T06:43:45.836Z,93.90
2018-02-03T06:46:13.362Z,94.00
2018-02-03T06:48:41.828Z,93.90
2018-02-03T06:51:09.404Z,93.90
2018-02-03T06:53:37.703Z,93.80
2018-02-03T06:56:05.242Z,93.80
2018-02-03T06:58:33.520Z,93.80
2018-02-03T07:01:01.917Z,93.80
2018-02-03T07:03:29.474Z,93.80
2018-02-03T07:05:57.013Z,93.70
2018-02-03T07:08:25.301Z,93.50
2018-02-03T07:10:53.735Z,93.50
2018-02-03T07:13:21.265Z,93.50
2018-02-03T07:15:48.834Z,93.60
2018-02-03T07:18:16.344Z,93.50
2018-02-03T07:20:44.668Z,93.40
2018-02-03T07:23:12.203Z,93.40
2018-02-03T07:25:39.750Z,93.30
2018-02-03T07:28:08.039Z,92.70
2018-02-03T07:30:35.582Z,92.70
2018-02-03T07:33:03.932Z,92.80
2018-02-03T07:35:31.492Z,92.80
2018-02-03T07:37:59.039Z,92.70
2018-02-03T07:40:26.638Z,92.60
2018-02-03T07:42:54.957Z,95.10
2018-02-03T07:45:22.522Z,95.10
2018-02-03T07:47:50.030Z,92.30
2018-02-03T07:50:18.439Z,92.10
2018-02-03T07:52:45.951Z,92.10
2018-02-03T07:55:13.505Z,92.20
2018-02-03T07:57:41.046Z,91.90
2018-02-03T08:00:08.568Z,92.00
2018-02-03T08:02:36.096Z,91.90
2018-02-03T08:05:04.459Z,91.00
2018-02-03T08:07:32.001Z,90.80
2018-02-03T08:09:59.601Z,87.50
2018-02-03T08:12:27.888Z,80.40
2018-02-03T08:14:56.186Z,79.70
2018-02-03T08:17:23.719Z,79.70
2018-02-03T08:19:52.042Z,80.60
2018-02-03T08:22:19.581Z,80.50
2018-02-03T08:24:47.162Z,81.70
2018-02-03T08:27:14.910Z,80.40
2018-02-03T08:29:42.497Z,79.80
2018-02-03T08:32:10.024Z,80.30
2018-02-03T08:34:37.566Z,80.60
2018-02-03T08:37:05.857Z,80.10
2018-02-03T08:39:33.437Z,80.10
2018-02-03T08:42:00.984Z,80.70
2018-02-03T08:44:28.541Z,80.80
2018-02-03T08:46:56.071Z,78.50
2018-02-03T08:49:24.533Z,75.30
2018-02-03T08:51:52.043Z,75.30
2018-02-03T08:54:19.670Z,75.30
2018-02-03T08:56:47.985Z,78.80
2018-02-03T08:59:15.560Z,78.00
2018-02-03T09:01:43.081Z,79.40
2018-02-03T09:04:10.731Z,80.70
2018-02-03T09:06:39.008Z,82.20
2018-02-03T09:09:07.290Z,82.90
2018-02-03T09:11:34.880Z,82.90
2018-02-03T09:14:04.328Z,84.00
2018-02-03T09:16:32.385Z,84.10
2018-02-03T09:19:00.239Z,84.10
2018-02-03T09:21:27.866Z,84.10
2018-02-03T09:23:55.390Z,83.60
2018-02-03T09:26:23.787Z,83.70
2018-02-03T09:28:53.616Z,83.50
2018-02-03T09:31:21.440Z,83.40
2018-02-03T09:33:49.228Z,83.30
2018-02-03T09:36:16.757Z,83.30
2018-02-03T09:38:45.094Z,83.10
2018-02-03T09:41:12.802Z,83.10
2018-02-03T09:43:40.392Z,83.20
2018-02-03T09:46:07.955Z,83.30
2018-02-03T09:48:35.633Z,83.90
2018-02-03T09:51:03.269Z,84.50
2018-02-03T09:53:31.839Z,83.50
2018-02-03T09:55:59.602Z,83.50
2018-02-03T09:58:27.156Z,83.50
2018-02-03T10:00:54.805Z,83.30
2018-02-03T10:03:22.407Z,83.80
2018-02-03T10:05:49.987Z,83.70
2018-02-03T10:08:17.582Z,83.90
2018-02-03T10:10:45.194Z,84.60
2018-02-03T10:13:12.737Z,84.10
2018-02-03T10:19:02.157Z,82.90
2018-02-03T10:21:31.166Z,83.20
2018-02-03T10:23:59.858Z,80.90
2018-02-03T10:26:28.226Z,76.80
2018-02-03T10:28:55.949Z,76.70
2018-02-03T10:31:24.285Z,62.70
2018-02-03T10:33:51.927Z,62.60
2018-02-03T10:36:19.581Z,61.00
2018-02-03T10:38:47.164Z,55.40
2018-02-03T10:41:14.712Z,53.60
2018-02-03T10:43:42.390Z,55.00
2018-02-03T10:46:09.935Z,53.50
2018-02-03T10:48:37.776Z,52.00
2018-02-03T10:51:05.396Z,50.90
2018-02-03T10:53:33.728Z,49.00
2018-02-03T10:56:01.243Z,49.00
2018-02-03T10:58:28.871Z,51.20
2018-02-03T11:01:02.053Z,53.00
2018-02-03T11:03:29.616Z,56.60
2018-02-03T11:05:57.207Z,59.10
2018-02-03T11:08:26.444Z,64.40
2018-02-03T11:10:53.946Z,64.40
2018-02-03T11:13:21.612Z,66.10
2018-02-03T11:15:49.117Z,68.30
2018-02-03T11:18:16.707Z,69.60
2018-02-03T11:20:44.315Z,70.60
2018-02-03T11:23:11.878Z,71.10
2018-02-03T11:25:40.198Z,72.40
2018-02-03T11:28:07.830Z,72.40
2018-02-03T11:30:35.343Z,73.00
2018-02-03T11:33:02.941Z,73.80
2018-02-03T11:35:30.498Z,74.30
2018-02-03T11:37:58.100Z,74.20
2018-02-03T11:40:25.620Z,75.00
2018-02-03T11:42:53.185Z,75.20
2018-02-03T11:45:20.703Z,75.60
2018-02-03T11:47:48.328Z,75.50
2018-02-03T11:50:15.988Z,75.30
2018-02-03T11:52:43.630Z,75.50
2018-02-03T11:55:11.193Z,76.10
2018-02-03T11:57:38.857Z,76.60
2018-02-03T12:00:06.377Z,77.40
2018-02-03T12:02:34.023Z,76.90
2018-02-03T12:05:01.560Z,77.00
2018-02-03T12:07:29.099Z,75.90
2018-02-03T12:09:56.623Z,71.70
2018-02-03T12:12:25.195Z,70.20
2018-02-03T12:14:53.491Z,71.20
2018-02-03T12:17:21.080Z,71.00
2018-02-03T12:19:48.588Z,72.20
2018-02-03T12:22:17.024Z,74.30
2018-02-03T12:24:44.551Z,74.20
2018-02-03T12:27:12.117Z,74.40
2018-02-03T12:29:39.690Z,74.70
2018-02-03T12:32:07.214Z,76.90
2018-02-03T12:34:35.541Z,74.90
2018-02-03T12:37:04.825Z,76.40
2018-02-03T12:39:32.371Z,76.40
2018-02-03T12:42:00.103Z,78.20
2018-02-03T12:44:28.581Z,78.90
2018-02-03T12:46:56.170Z,80.20
2018-02-03T12:49:23.800Z,81.10
2018-02-03T12:51:51.405Z,82.50
2018-02-03T12:54:19.313Z,82.90
2018-02-03T12:56:47.089Z,84.90
2018-02-03T12:59:14.634Z,86.00
2018-02-03T13:01:42.180Z,86.90
2018-02-03T13:04:09.769Z,87.50
2018-02-03T13:06:37.291Z,88.00
2018-02-03T13:09:04.906Z,86.30
2018-02-03T13:11:32.410Z,86.80
2018-02-03T13:13:59.914Z,87.20
2018-02-03T13:16:27.550Z,87.40
2018-02-03T13:18:55.270Z,88.40
2018-02-03T13:21:22.811Z,87.60
2018-02-03T13:23:51.102Z,86.20
2018-02-03T13:26:18.684Z,86.20
2018-02-03T13:28:46.236Z,87.20
2018-02-03T13:31:13.999Z,88.30
2018-02-03T13:33:41.643Z,89.60
2018-02-03T13:36:09.935Z,89.90
2018-02-03T13:38:37.488Z,89.90
2018-02-03T13:41:05.264Z,88.80
2018-02-03T13:43:32.768Z,89.20
2018-02-03T13:46:00.408Z,89.20
2018-02-03T13:48:27.949Z,89.10
2018-02-03T13:50:55.592Z,90.00
2018-02-03T13:53:23.104Z,87.50
2018-02-03T13:55:50.707Z,88.50
2018-02-03T13:58:18.214Z,88.30
2018-02-03T14:00:45.777Z,88.30
2018-02-03T14:03:13.317Z,89.30
2018-02-03T14:05:41.102Z,90.00
2018-02-03T14:08:08.665Z,89.60
2018-02-03T14:10:36.225Z,90.40
2018-02-03T14:13:03.748Z,90.30
2018-02-03T14:15:31.437Z,90.30
2018-02-03T14:17:58.966Z,90.40
2018-02-03T14:20:26.516Z,90.30
2018-02-03T14:22:54.733Z,90.70
2018-02-03T14:25:22.279Z,90.70
2018-02-03T14:27:49.828Z,91.20
2018-02-03T14:30:17.803Z,91.40
2018-02-03T14:32:45.474Z,91.50
2018-02-03T14:35:15.125Z,91.60
2018-02-03T14:37:43.477Z,91.10
2018-02-03T14:40:11.027Z,91.10
2018-02-03T14:42:38.727Z,90.90
2018-02-03T14:45:07.045Z,91.40
2018-02-03T14:47:34.586Z,91.40
2018-02-03T14:50:02.156Z,91.30
2018-02-03T14:52:29.739Z,98.20
2018-02-03T14:54:57.415Z,93.30
2018-02-03T14:57:25.035Z,91.10
2018-02-03T14:59:53.130Z,91.10
2018-02-03T15:02:20.663Z,91.00
2018-02-03T15:04:48.321Z,91.30
2018-02-03T15:07:15.881Z,91.50
2018-02-03T15:09:43.399Z,91.70
2018-02-03T15:12:10.943Z,91.80
2018-02-03T15:14:38.540Z,91.70
2018-02-03T15:17:06.921Z,91.60
2018-02-03T15:19:34.443Z,91.60
2018-02-03T15:22:01.997Z,91.30
2018-02-03T15:24:29.623Z,91.20
2018-02-03T15:26:57.200Z,91.60
2018-02-03T15:29:24.732Z,92.40
2018-02-03T15:31:52.270Z,91.60
2018-02-03T15:34:20.657Z,91.50
2018-02-03T15:36:48.226Z,91.10
2018-02-03T15:39:15.752Z,90.90
2018-02-03T15:41:44.148Z,91.20
2018-02-03T15:44:12.423Z,91.20
2018-02-03T15:46:40.769Z,91.30
2018-02-03T15:49:08.267Z,91.30
2018-02-03T15:51:35.906Z,91.60
2018-02-03T15:54:04.202Z,91.70
2018-02-03T15:56:31.775Z,91.70
2018-02-03T15:58:59.294Z,91.90
2018-02-03T16:01:28.341Z,92.00
2018-02-03T16:03:55.895Z,92.00
2018-02-03T16:06:23.487Z,92.20
2018-02-03T16:08:51.084Z,92.40
2018-02-03T16:11:20.862Z,92.80
2018-02-03T16:13:48.366Z,92.70
2018-02-03T16:16:15.919Z,92.10
2018-02-03T16:18:44.331Z,92.10
2018-02-03T16:21:11.941Z,92.10
2018-02-03T16:23:39.530Z,92.20
2018-02-03T16:26:07.254Z,92.10
2018-02-03T16:28:35.586Z,92.80
2018-02-03T16:31:03.139Z,92.80
2018-02-03T16:33:30.823Z,93.00
2018-02-03T16:35:59.498Z,93.30
2018-02-03T16:38:26.998Z,93.10
2018-02-03T16:40:54.554Z,93.30
2018-02-03T16:43:22.166Z,93.10
2018-02-03T16:45:49.818Z,92.80
2018-02-03T16:48:17.361Z,93.00
2018-02-03T16:50:45.717Z,92.90
2018-02-03T16:53:13.243Z,92.90
2018-02-03T16:55:40.790Z,93.00
2018-02-03T16:58:08.303Z,93.30
2018-02-03T17:00:35.853Z,93.40
2018-02-03T17:03:03.362Z,93.20
2018-02-03T17:05:30.928Z,93.20
2018-02-03T17:07:58.462Z,93.30
2018-02-03T17:10:26.014Z,93.30
2018-02-03T17:12:54.272Z,93.30
2018-02-03T17:15:21.808Z,93.30
2018-02-03T17:17:49.458Z,93.30
2018-02-03T17:20:17.072Z,93.50
2018-02-03T17:22:45.408Z,93.60
2018-02-03T17:25:13.095Z,93.50
2018-02-03T17:27:41.407Z,94.10
2018-02-03T17:30:08.987Z,93.70
2018-02-03T17:32:36.562Z,93.70
2018-02-03T17:35:04.074Z,94.10
2018-02-03T17:37:37.365Z,94.00
2018-02-03T17:40:05.113Z,93.90
2018-02-03T17:42:38.344Z,93.80
2018-02-03T17:45:13.826Z,94.10
2018-02-03T17:47:41.615Z,93.80
2018-02-03T17:50:13.873Z,93.60
2018-02-03T17:52:42.677Z,93.60
2018-02-03T17:55:10.280Z,93.60
2018-02-03T17:57:44.519Z,93.50
2018-02-03T18:00:12.140Z,93.50
2018-02-03T18:02:39.686Z,93.60
2018-02-03T18:05:07.336Z,93.70
2018-02-03T18:07:36.296Z,93.60
2018-02-03T18:10:03.819Z,93.50
2018-02-03T18:12:31.415Z,93.60
2018-02-03T18:14:58.927Z,93.50
2018-02-03T18:17:27.778Z,93.50
2018-02-03T18:19:55.395Z,93.60
2018-02-03T18:22:23.755Z,93.60
2018-02-03T18:24:51.287Z,93.60
2018-02-03T18:27:19.619Z,93.60
2018-02-03T18:29:47.196Z,93.60
2018-02-03T18:32:14.760Z,93.50
2018-02-03T18:34:42.292Z,93.40
2018-02-03T18:37:09.870Z,93.30
2018-02-03T18:39:37.419Z,93.20
2018-02-03T18:42:05.047Z,93.40
2018-02-03T18:44:32.608Z,93.40
2018-02-03T18:47:00.174Z,93.20
2018-02-03T18:49:27.716Z,96.90
2018-02-03T18:51:55.306Z,96.90
2018-02-03T18:54:22.853Z,93.50
2018-02-03T18:56:50.422Z,93.20
2018-02-03T18:59:17.990Z,93.20
2018-02-03T19:01:45.510Z,93.20
2018-02-03T19:04:13.075Z,93.10
2018-02-03T19:06:40.707Z,93.10
2018-02-03T19:09:08.294Z,93.20
2018-02-03T19:11:35.912Z,93.20
2018-02-03T19:14:03.452Z,93.10
2018-02-03T19:16:31.087Z,93.10
2018-02-03T19:18:59.629Z,93.30
2018-02-03T19:21:28.225Z,93.30
2018-02-03T19:23:55.832Z,93.00
2018-02-03T19:26:23.711Z,92.70
2018-02-03T19:28:51.452Z,92.90
2018-02-03T19:31:19.504Z,92.70
2018-02-03T19:33:47.533Z,92.90
2018-02-03T19:36:15.125Z,92.70
2018-02-03T19:38:43.470Z,92.70
2018-02-03T19:41:11.037Z,92.60
2018-02-03T19:43:38.558Z,93.10
2018-02-03T19:46:06.097Z,93.20
2018-02-03T19:48:33.742Z,92.50
2018-02-03T19:51:02.122Z,98.70
2018-02-03T19:53:30.519Z,94.60
2018-02-03T19:55:58.064Z,94.60
2018-02-03T19:58:26.703Z,93.30
2018-02-03T20:00:54.535Z,93.30
2018-02-03T20:03:22.229Z,93.50
2018-02-03T20:05:49.736Z,93.20
2018-02-03T20:08:17.364Z,93.30
2018-02-03T20:10:44.964Z,93.10
2018-02-03T20:13:12.507Z,93.00
2018-02-03T20:15:40.871Z,92.90
2018-02-03T20:18:09.152Z,92.90
2018-02-03T20:20:38.815Z,92.50
2018-02-03T20:23:06.452Z,92.50
2018-02-03T20:25:34.022Z,92.60
2018-02-03T20:28:01.576Z,92.60
2018-02-03T20:30:30.007Z,92.70
2018-02-03T20:32:57.636Z,92.70
2018-02-03T20:35:25.212Z,93.00
2018-02-03T20:37:52.784Z,93.10
2018-02-03T20:40:20.417Z,93.20
2018-02-03T20:42:48.369Z,93.00
2018-02-03T20:45:15.957Z,93.00
2018-02-03T20:47:43.489Z,92.90
2018-02-03T20:50:11.042Z,93.00
2018-02-03T20:52:38.568Z,92.80
2018-02-03T20:55:06.933Z,92.90
2018-02-03T20:57:34.441Z,92.90
2018-02-03T21:00:02.031Z,93.10
2018-02-03T21:02:29.554Z,93.30
2018-02-03T21:04:57.489Z,93.60
2018-02-03T21:07:25.083Z,93.80
2018-02-03T21:09:52.640Z,93.90
2018-02-03T21:12:20.158Z,94.20
2018-02-03T21:14:48.487Z,94.50
2018-02-03T21:17:16.040Z,94.50
2018-02-03T21:19:43.589Z,94.60
2018-02-03T21:22:11.199Z,94.60
2018-02-03T21:24:38.711Z,94.70
2018-02-03T21:27:06.286Z,94.80
2018-02-03T21:29:33.849Z,94.80
2018-02-03T21:32:01.402Z,94.80
2018-02-03T21:34:28.961Z,94.60
2018-02-03T21:36:56.607Z,94.70
2018-02-03T21:39:24.899Z,94.80
2018-02-03T21:41:53.346Z,94.50
2018-02-03T21:44:22.344Z,94.20
2018-02-03T21:46:50.704Z,94.10
2018-02-03T21:49:18.282Z,94.10
2018-02-03T21:51:48.519Z,94.30
2018-02-03T21:54:16.883Z,94.20
2018-02-03T21:56:45.215Z,94.10
2018-02-03T21:59:12.870Z,94.10
2018-02-03T22:01:40.425Z,94.20
2018-02-03T22:04:07.974Z,94.40
2018-02-03T22:06:35.497Z,94.10
2018-02-03T22:09:03.755Z,94.30
2018-02-03T22:11:31.299Z,94.30
2018-02-03T22:13:58.861Z,94.40
2018-02-03T22:16:26.590Z,94.80
2018-02-03T22:19:04.042Z,94.90
2018-02-03T22:21:32.571Z,94.40
2018-02-03T22:24:00.222Z,94.30
2018-02-03T22:26:27.762Z,94.40
2018-02-03T22:28:55.386Z,94.30
2018-02-03T22:31:23.009Z,94.40
2018-02-03T22:33:50.571Z,94.30
2018-02-03T22:36:18.134Z,94.60
2018-02-03T22:38:45.674Z,94.40
2018-02-03T22:41:13.252Z,94.30
2018-02-03T22:43:40.788Z,94.20
2018-02-03T22:46:09.495Z,94.10
2018-02-03T22:48:37.209Z,94.10
2018-02-03T22:51:05.560Z,94.30
2018-02-03T22:53:33.654Z,93.90
2018-02-03T22:56:01.204Z,93.90
2018-02-03T22:58:28.732Z,94.00
2018-02-03T23:01:02.072Z,94.20
2018-02-03T23:03:30.422Z,94.20
2018-02-03T23:05:57.966Z,94.20
2018-02-03T23:08:25.607Z,94.20
2018-02-03T23:10:53.948Z,94.40
2018-02-03T23:13:22.218Z,94.50
2018-02-03T23:15:49.782Z,94.30
2018-02-03T23:18:18.233Z,94.20
2018-02-03T23:20:45.896Z,94.10
2018-02-03T23:23:13.409Z,94.20
2018-02-03T23:25:40.980Z,94.20
2018-02-03T23:28:08.646Z,94.10
2018-02-03T23:30:37.066Z,94.10
2018-02-03T23:33:04.569Z,93.90
2018-02-03T23:35:32.171Z,94.20
2018-02-03T23:37:59.780Z,94.10
2018-02-03T23:40:28.166Z,94.00
2018-02-03T23:42:55.686Z,94.00
2018-02-03T23:45:23.256Z,93.90
2018-02-03T23:47:51.167Z,93.70
2018-02-03T23:50:18.823Z,93.70
2018-02-03T23:52:46.343Z,93.80
2018-02-03T23:55:13.886Z,93.90
2018-02-03T23:57:41.408Z,93.90
